Terminal Aerodrome Forecast
Issued by NWS Columbia, SC

Home | Current Version | Previous Version | Text Only | Print | Product List | Glossary On
Versions: 1 2 3 4 5 6 7 8 9 10 11 12 13 14 15 16 17 18 19 20 21 22 23 24 25 26 27 28 29 30 31 32 33 34 35 36 37 38 39 40 41 42 43 44
742
FTUS42 KCAE 042149 AAE
TAFAGS
TAF AMD
KAGS 042149Z 0422/0518 05006KT 3SM -RA BR OVC020
     FM050100 05005KT 3SM -RA BR OVC008 WS020/18028KT
     FM051100 36003KT 3SM -RA BR OVC008=

USA.gov is the U.S. government's official web portal to all federal, state and local government web resources and services.